Svend Maersk — OYJS2 — position and weather

sailwx.info

Track history (hours):
 
Tides and Currents Weather Stations Pressure Air Temp Water Temp Dewpoint Dewpoint Depression Visibility Wind Speed Wind Dir Waves Ship Positions

Svend Maersk

Last reported at 2016-Jun-22 01:29 UTC. Time now 2016-Jun-26 01:08 UTC.
Position N 35°26' W 132°50'.

Type: Ship. MMSI: 219791000.

Date/timePositionNaut miles runAvg speedWind from/ knotsBaromVisibWave heightAir tempDewpointWater temp
2016-Jun-22 01:29N 35°26' W 132°50'1717.6
2016-Jun-22 00:32N 35°18' W 132°31'1717.7
2016-Jun-21 23:33N 35°10' W 132°13'4017.7
2016-Jun-21 21:17N 34°50' W 131°30'2017.8
2016-Jun-21 20:08N 34°40' W 131°08'1218.0
2016-Jun-21 19:29N 34°34' W 130°56'1718.0
2016-Jun-21 18:33N 34°26' W 130°38'1817.7
2016-Jun-21 17:32N 34°18' W 130°19'1717.7
2016-Jun-21 16:33N 34°11' W 129°60'1717.4
2016-Jun-21 15:33N 34°03' W 129°41'1717.2
2016-Jun-21 14:33N 33°54' W 129°23'1817.2
2016-Jun-21 13:31N 33°45' W 129°05'1717.2
2016-Jun-21 12:33N 33°36' W 128°48'1717.1
2016-Jun-21 11:33N 33°27' W 128°31'1717.1
2016-Jun-21 10:33N 33°18' W 128°13'1717.1
2016-Jun-21 09:33N 33°08' W 127°56'1717.1
2016-Jun-21 08:33N 32°60' W 127°39'1717.2
2016-Jun-21 07:33N 32°51' W 127°21'1717.1
2016-Jun-21 06:33N 32°42' W 127°03'3417.1
2016-Jun-21 04:33N 32°25' W 126°29'1717.1
2016-Jun-21 03:33N 32°15' W 126°12'1717.0
2016-Jun-21 02:33N 32°06' W 125°55'1717.1
2016-Jun-21 01:33N 31°57' W 125°38'1817.1
2016-Jun-21 00:32N 31°47' W 125°21'1717.0
2016-Jun-20 23:33N 31°39' W 125°04'1717.1
2016-Jun-20 22:33N 31°29' W 124°47'1716.9
2016-Jun-20 21:33N 31°20' W 124°30'1716.9
2016-Jun-20 20:34N 31°11' W 124°14'1716.9
2016-Jun-20 19:33N 31°02' W 123°58'1716.6
2016-Jun-20 18:33N 30°53' W 123°41'1716.5
2016-Jun-20 17:34N 30°44' W 123°25'1716.7
2016-Jun-20 16:34N 30°35' W 123°09'1716.6
2016-Jun-20 15:34N 30°26' W 122°53'1716.8
2016-Jun-20 14:34N 30°16' W 122°37'1716.8
2016-Jun-20 13:34N 30°07' W 122°21'1716.7
2016-Jun-20 12:33N 29°57' W 122°05'1616.5
2016-Jun-20 11:34N 29°48' W 121°49'1717.0
2016-Jun-20 10:33N 29°38' W 121°33'1716.9
2016-Jun-20 09:33N 29°29' W 121°17'1716.8
2016-Jun-20 08:33N 29°19' W 121°01'1716.8
2016-Jun-20 07:34N 29°09' W 120°45'1716.8
2016-Jun-20 06:33N 28°59' W 120°30'1717.0
2016-Jun-20 05:34N 28°49' W 120°14'1717.1
2016-Jun-20 04:33N 28°40' W 119°58'1717.1
2016-Jun-20 03:34N 28°31' W 119°42'1717.1
2016-Jun-20 02:33N 28°22' W 119°25'1716.9
2016-Jun-20 01:33N 28°11' W 119°10'1717.3
2016-Jun-20 00:33N 28°01' W 118°55'1717.2
2016-Jun-19 23:33N 27°51' W 118°39'1716.8
2016-Jun-19 22:33N 27°41' W 118°23'1717.1
2016-Jun-19 21:33N 27°31' W 118°08'1717.0
2016-Jun-19 20:33N 27°21' W 117°52'15216.9
2016-Jun-19 11:33N 25°50' W 115°36'  
Track history (hours):
 
Tides and Currents Weather Stations Pressure Air Temp Water Temp Dewpoint Dewpoint Depression Visibility Wind Speed Wind Dir Waves Ship Positions

Svend Maersk

Last reported at 2016-Jun-22 01:29 UTC. Time now 2016-Jun-26 01:08 UTC.
Position N 35°26' W 132°50'.

Type: Ship. MMSI: 219791000.

Date/timePositionNaut miles runAvg speedWind from/ knotsBaromVisibWave heightAir tempDewpointWater temp
2016-Jun-22 01:29N 35°26' W 132°50'1717.6
2016-Jun-22 00:32N 35°18' W 132°31'1717.7
2016-Jun-21 23:33N 35°10' W 132°13'4017.7
2016-Jun-21 21:17N 34°50' W 131°30'2017.8
2016-Jun-21 20:08N 34°40' W 131°08'1218.0
2016-Jun-21 19:29N 34°34' W 130°56'1718.0
2016-Jun-21 18:33N 34°26' W 130°38'1817.7
2016-Jun-21 17:32N 34°18' W 130°19'1717.7
2016-Jun-21 16:33N 34°11' W 129°60'1717.4
2016-Jun-21 15:33N 34°03' W 129°41'1717.2
2016-Jun-21 14:33N 33°54' W 129°23'1817.2
2016-Jun-21 13:31N 33°45' W 129°05'1717.2
2016-Jun-21 12:33N 33°36' W 128°48'1717.1
2016-Jun-21 11:33N 33°27' W 128°31'1717.1
2016-Jun-21 10:33N 33°18' W 128°13'1717.1
2016-Jun-21 09:33N 33°08' W 127°56'1717.1
2016-Jun-21 08:33N 32°60' W 127°39'1717.2
2016-Jun-21 07:33N 32°51' W 127°21'1717.1
2016-Jun-21 06:33N 32°42' W 127°03'3417.1
2016-Jun-21 04:33N 32°25' W 126°29'1717.1
2016-Jun-21 03:33N 32°15' W 126°12'1717.0
2016-Jun-21 02:33N 32°06' W 125°55'1717.1
2016-Jun-21 01:33N 31°57' W 125°38'1817.1
2016-Jun-21 00:32N 31°47' W 125°21'1717.0
2016-Jun-20 23:33N 31°39' W 125°04'1717.1
2016-Jun-20 22:33N 31°29' W 124°47'1716.9
2016-Jun-20 21:33N 31°20' W 124°30'1716.9
2016-Jun-20 20:34N 31°11' W 124°14'1716.9
2016-Jun-20 19:33N 31°02' W 123°58'1716.6
2016-Jun-20 18:33N 30°53' W 123°41'1716.5
2016-Jun-20 17:34N 30°44' W 123°25'1716.7
2016-Jun-20 16:34N 30°35' W 123°09'1716.6
2016-Jun-20 15:34N 30°26' W 122°53'1716.8
2016-Jun-20 14:34N 30°16' W 122°37'1716.8
2016-Jun-20 13:34N 30°07' W 122°21'1716.7
2016-Jun-20 12:33N 29°57' W 122°05'1616.5
2016-Jun-20 11:34N 29°48' W 121°49'1717.0
2016-Jun-20 10:33N 29°38' W 121°33'1716.9
2016-Jun-20 09:33N 29°29' W 121°17'1716.8
2016-Jun-20 08:33N 29°19' W 121°01'1716.8
2016-Jun-20 07:34N 29°09' W 120°45'1716.8
2016-Jun-20 06:33N 28°59' W 120°30'1717.0
2016-Jun-20 05:34N 28°49' W 120°14'1717.1
2016-Jun-20 04:33N 28°40' W 119°58'1717.1
2016-Jun-20 03:34N 28°31' W 119°42'1717.1
2016-Jun-20 02:33N 28°22' W 119°25'1716.9
2016-Jun-20 01:33N 28°11' W 119°10'1717.3
2016-Jun-20 00:33N 28°01' W 118°55'1717.2
2016-Jun-19 23:33N 27°51' W 118°39'1716.8
2016-Jun-19 22:33N 27°41' W 118°23'1717.1
2016-Jun-19 21:33N 27°31' W 118°08'1717.0
2016-Jun-19 20:33N 27°21' W 117°52'15216.9
2016-Jun-19 11:33N 25°50' W 115°36'  

Dump ship's entire track history